createdAt,value
2019-03-21T00:01:45.623Z,67.78
2019-03-21T00:06:49.995Z,65.84
2019-03-21T00:12:02.072Z,66.26
2019-03-21T00:17:09.190Z,65.12
2019-03-21T00:22:13.596Z,64.58
2019-03-21T00:27:17.959Z,66.05
2019-03-21T00:32:22.394Z,64.06
2019-03-21T00:37:26.744Z,64.82
2019-03-21T00:42:31.075Z,65.50
2019-03-21T00:47:35.452Z,63.74
2019-03-21T00:52:39.903Z,64.34
2019-03-21T00:57:44.284Z,63.45
2019-03-21T01:02:48.618Z,63.71
2019-03-21T01:07:52.978Z,67.46
2019-03-21T01:12:57.519Z,67.02
2019-03-21T01:18:01.909Z,65.47
2019-03-21T01:23:06.345Z,64.66
2019-03-21T01:28:10.720Z,65.17
2019-03-21T01:33:15.063Z,65.35
2019-03-21T01:38:19.441Z,65.48
2019-03-21T01:43:23.852Z,66.30
2019-03-21T01:48:28.221Z,66.67
2019-03-21T01:53:32.571Z,66.52
2019-03-21T01:58:36.934Z,66.37
2019-03-21T02:03:41.303Z,67.12
2019-03-21T02:08:45.668Z,67.61
2019-03-21T02:13:50.015Z,67.35
2019-03-21T02:18:55.344Z,65.46
2019-03-21T02:23:59.754Z,66.61
2019-03-21T02:29:04.129Z,68.28
2019-03-21T02:34:08.521Z,67.33
2019-03-21T02:39:12.826Z,64.03
2019-03-21T02:44:17.169Z,66.08
2019-03-21T02:49:21.511Z,66.31
2019-03-21T02:54:25.848Z,66.25
2019-03-21T02:59:30.240Z,66.51
2019-03-21T03:04:34.595Z,64.90
2019-03-21T03:09:38.932Z,66.42
2019-03-21T03:14:43.297Z,65.34
2019-03-21T03:19:47.634Z,66.07
2019-03-21T03:24:52.007Z,66.30
2019-03-21T03:29:56.436Z,66.45
2019-03-21T03:35:01.189Z,66.62
2019-03-21T03:40:11.922Z,64.82
2019-03-21T03:45:38.072Z,64.97
2019-03-21T03:50:39.944Z,65.95
2019-03-21T03:55:44.367Z,66.82
2019-03-21T04:00:48.748Z,66.67
2019-03-21T04:05:53.195Z,67.18
2019-03-21T04:10:58.417Z,66.08
2019-03-21T04:16:02.842Z,67.49
2019-03-21T04:21:12.586Z,65.65
2019-03-21T04:26:26.274Z,65.85
2019-03-21T04:31:30.733Z,65.75
2019-03-21T04:36:35.173Z,65.67
2019-03-21T04:41:41.518Z,65.20
2019-03-21T04:46:45.904Z,68.32
2019-03-21T04:51:50.305Z,67.60
2019-03-21T04:56:54.646Z,67.82
2019-03-21T05:01:59.046Z,69.33
2019-03-21T05:07:03.387Z,68.91
2019-03-21T05:12:07.817Z,68.86
2019-03-21T05:17:12.188Z,69.71
2019-03-21T05:22:18.148Z,68.58
2019-03-21T05:27:22.535Z,69.03
2019-03-21T05:32:26.899Z,69.27
2019-03-21T05:37:31.252Z,69.50
2019-03-21T05:42:35.619Z,67.73
2019-03-21T05:47:39.993Z,69.17
2019-03-21T05:52:44.368Z,69.43
2019-03-21T05:57:48.742Z,69.00
2019-03-21T06:02:53.085Z,70.48
2019-03-21T06:08:09.723Z,70.67
2019-03-21T06:13:14.071Z,68.77
2019-03-21T06:18:38.009Z,67.02
2019-03-21T06:23:55.256Z,68.87
2019-03-21T06:28:59.632Z,65.93
2019-03-21T06:34:04.059Z,65.42
2019-03-21T06:39:09.290Z,63.17
2019-03-21T06:44:13.728Z,61.90
2019-03-21T06:49:18.067Z,61.90
2019-03-21T06:54:22.420Z,60.75
2019-03-21T06:59:26.818Z,59.34
2019-03-21T07:04:31.238Z,59.90
2019-03-21T07:09:35.591Z,58.72
2019-03-21T07:14:39.936Z,58.09
2019-03-21T07:19:44.328Z,59.33
2019-03-21T07:24:48.699Z,57.30
2019-03-21T07:29:53.098Z,57.35
2019-03-21T07:34:57.446Z,56.86
2019-03-21T07:40:01.826Z,57.15
2019-03-21T07:45:09.399Z,55.92
2019-03-21T07:50:14.876Z,55.21
2019-03-21T07:55:19.231Z,55.21
2019-03-21T08:00:23.629Z,53.73
2019-03-21T08:05:39.506Z,53.04
2019-03-21T08:10:34.251Z,52.85
2019-03-21T08:15:38.693Z,55.11
2019-03-21T08:20:43.042Z,55.20
2019-03-21T08:25:47.552Z,54.33
2019-03-21T08:31:06.666Z,52.87
2019-03-21T08:36:11.096Z,52.79
2019-03-21T08:41:15.492Z,51.84
2019-03-21T08:46:19.847Z,52.04
2019-03-21T08:51:24.237Z,52.36
2019-03-21T08:56:28.576Z,52.66
2019-03-21T09:01:33.935Z,51.96
2019-03-21T09:06:38.382Z,52.75
2019-03-21T09:11:43.389Z,52.26
2019-03-21T09:16:47.789Z,52.25
2019-03-21T09:21:52.149Z,52.62
2019-03-21T09:26:56.525Z,52.64
2019-03-21T09:32:00.918Z,53.70
2019-03-21T09:37:05.321Z,54.18
2019-03-21T09:42:09.697Z,55.03
2019-03-21T09:47:14.120Z,54.50
2019-03-21T09:52:18.500Z,54.56
2019-03-21T09:57:22.848Z,54.16
2019-03-21T10:02:27.236Z,54.31
2019-03-21T10:07:31.601Z,53.96
2019-03-21T10:12:35.966Z,53.66
2019-03-21T10:17:40.306Z,53.77
2019-03-21T10:22:44.700Z,53.17
2019-03-21T10:27:49.131Z,53.62
2019-03-21T10:32:53.545Z,53.42
2019-03-21T10:37:58.299Z,53.52
2019-03-21T10:43:02.752Z,53.76
2019-03-21T10:48:07.405Z,54.18
2019-03-21T10:53:11.814Z,53.51
2019-03-21T10:58:16.205Z,54.16
2019-03-21T11:03:20.605Z,54.35
2019-03-21T11:08:24.948Z,54.05
2019-03-21T11:13:29.385Z,53.86
2019-03-21T11:18:36.376Z,53.98
2019-03-21T11:23:39.794Z,53.89
2019-03-21T11:28:44.387Z,53.67
2019-03-21T11:33:48.856Z,54.01
2019-03-21T11:38:53.353Z,54.17
2019-03-21T11:43:57.682Z,53.89
2019-03-21T11:49:02.072Z,54.14
2019-03-21T11:54:06.437Z,53.94
2019-03-21T11:59:11.872Z,53.73
2019-03-21T12:04:16.247Z,53.34
2019-03-21T12:09:20.620Z,53.91
2019-03-21T12:14:24.972Z,53.71
2019-03-21T12:19:29.379Z,52.51
2019-03-21T12:24:33.729Z,52.56
2019-03-21T12:29:38.109Z,53.04
2019-03-21T12:34:42.517Z,52.99
2019-03-21T12:39:46.862Z,53.27
2019-03-21T12:44:51.199Z,53.55
2019-03-21T12:49:55.558Z,53.17
2019-03-21T12:54:59.933Z,53.21
2019-03-21T13:00:09.819Z,52.53
2019-03-21T13:05:30.596Z,53.20
2019-03-21T13:10:34.956Z,52.46
2019-03-21T13:15:39.343Z,53.25
2019-03-21T13:20:43.704Z,53.06
2019-03-21T13:25:48.054Z,52.87
2019-03-21T13:30:52.466Z,53.21
2019-03-21T13:35:56.835Z,52.85
2019-03-21T13:41:01.203Z,52.84
2019-03-21T13:46:05.647Z,53.32
2019-03-21T13:51:10.055Z,52.88
2019-03-21T13:56:14.441Z,52.94
2019-03-21T14:01:18.818Z,52.97
2019-03-21T14:06:23.219Z,53.32
2019-03-21T14:11:27.616Z,53.27
2019-03-21T14:16:32.120Z,53.49
2019-03-21T14:21:36.539Z,53.42
2019-03-21T14:26:40.931Z,53.76
2019-03-21T14:31:46.011Z,53.88
2019-03-21T14:36:50.371Z,53.36
2019-03-21T14:41:55.366Z,53.60
2019-03-21T14:46:59.707Z,54.62
2019-03-21T14:52:04.173Z,54.15
2019-03-21T14:57:08.550Z,53.93
2019-03-21T15:02:12.933Z,54.28
2019-03-21T15:07:18.753Z,54.54
2019-03-21T15:12:23.314Z,54.21
2019-03-21T15:17:27.709Z,54.50
2019-03-21T15:22:32.068Z,53.75
2019-03-21T15:27:36.787Z,54.09
2019-03-21T15:32:41.898Z,54.51
2019-03-21T15:37:46.471Z,54.00
2019-03-21T15:42:50.788Z,54.73
2019-03-21T15:47:55.212Z,54.73
2019-03-21T15:52:59.795Z,55.01
2019-03-21T15:58:04.304Z,55.59
2019-03-21T16:03:10.285Z,55.74
2019-03-21T16:08:14.725Z,55.02
2019-03-21T16:13:19.087Z,55.62
2019-03-21T16:18:23.447Z,56.27
2019-03-21T16:23:27.838Z,56.03
2019-03-21T16:28:32.254Z,56.83
2019-03-21T16:33:36.614Z,56.02
2019-03-21T16:38:41.000Z,57.08
2019-03-21T16:43:45.355Z,57.57
2019-03-21T16:48:49.736Z,57.54
2019-03-21T16:53:54.113Z,58.27
2019-03-21T16:58:59.017Z,58.79
2019-03-21T17:04:03.517Z,58.87
2019-03-21T17:09:08.811Z,59.39
2019-03-21T17:14:13.292Z,59.48
2019-03-21T17:19:17.679Z,59.55
2019-03-21T17:24:29.306Z,60.45
2019-03-21T17:29:29.188Z,60.44
2019-03-21T17:34:33.516Z,61.52
2019-03-21T17:39:37.959Z,62.20
2019-03-21T17:44:42.331Z,62.86
2019-03-21T17:49:46.826Z,63.06
2019-03-21T17:54:51.187Z,63.32
2019-03-21T17:59:55.550Z,63.89
2019-03-21T18:05:00.410Z,63.37
2019-03-21T18:10:07.772Z,63.95
2019-03-21T18:15:12.172Z,64.32
2019-03-21T18:20:17.693Z,63.74
2019-03-21T18:25:22.226Z,63.96
2019-03-21T18:30:26.676Z,64.49
2019-03-21T18:35:31.040Z,64.82
2019-03-21T18:40:35.410Z,65.08
2019-03-21T18:45:39.762Z,65.79
2019-03-21T18:50:48.918Z,66.85
2019-03-21T18:55:50.197Z,66.90
2019-03-21T19:00:55.521Z,66.96
2019-03-21T19:05:59.883Z,66.89
2019-03-21T19:11:04.387Z,67.90
2019-03-21T19:16:09.846Z,67.76
2019-03-21T19:21:14.178Z,70.61
2019-03-21T19:26:18.583Z,72.34
2019-03-21T19:31:22.994Z,73.38
2019-03-21T19:36:27.395Z,72.03
2019-03-21T19:41:33.582Z,72.27
2019-03-21T19:46:39.856Z,73.44
2019-03-21T19:51:45.335Z,74.55
2019-03-21T19:56:49.706Z,74.68
2019-03-21T20:01:54.290Z,74.47
2019-03-21T20:06:58.673Z,74.00
2019-03-21T20:12:03.237Z,74.49
2019-03-21T20:17:07.874Z,74.92
2019-03-21T20:22:12.442Z,74.04
2019-03-21T20:27:17.007Z,74.94
2019-03-21T20:32:21.449Z,74.36
2019-03-21T20:37:25.807Z,77.59
2019-03-21T20:42:30.196Z,77.17
2019-03-21T20:47:35.193Z,77.26
2019-03-21T20:52:39.930Z,76.79
2019-03-21T20:57:44.663Z,77.76
2019-03-21T21:02:50.140Z,77.94
2019-03-21T21:07:54.572Z,78.74
2019-03-21T21:12:59.083Z,78.09
2019-03-21T21:18:03.564Z,79.49
2019-03-21T21:23:07.931Z,80.20
2019-03-21T21:28:12.759Z,79.40
2019-03-21T21:33:17.318Z,80.14
2019-03-21T21:38:22.087Z,80.35
2019-03-21T21:43:26.783Z,79.12
2019-03-21T21:48:31.161Z,78.72
2019-03-21T21:53:35.517Z,79.98
2019-03-21T21:58:39.865Z,79.54
2019-03-21T22:03:44.260Z,79.46
2019-03-21T22:08:48.642Z,79.05
2019-03-21T22:13:53.022Z,79.80
2019-03-21T22:18:57.444Z,80.61
2019-03-21T22:24:01.895Z,79.17
2019-03-21T22:29:06.232Z,81.91
2019-03-21T22:34:10.592Z,80.90
2019-03-21T22:39:14.976Z,79.99
2019-03-21T22:44:19.319Z,82.41
2019-03-21T22:49:23.677Z,82.86
2019-03-21T22:54:28.022Z,81.98
2019-03-21T22:59:32.404Z,82.41
2019-03-21T23:04:37.608Z,81.06
2019-03-21T23:09:41.995Z,82.68
2019-03-21T23:14:46.361Z,83.64
2019-03-21T23:19:50.816Z,82.30
2019-03-21T23:24:55.231Z,82.66
2019-03-21T23:29:59.594Z,82.87
2019-03-21T23:35:05.892Z,83.33
2019-03-21T23:40:13.455Z,83.59
2019-03-21T23:45:19.968Z,82.81
2019-03-21T23:50:23.938Z,83.80
2019-03-21T23:55:28.337Z,84.22
